createdAt,value
2022-09-07T00:00:11.069Z,74.73
2022-09-07T00:01:11.063Z,74.65
2022-09-07T00:02:11.065Z,74.96
2022-09-07T00:03:11.190Z,75.09
2022-09-07T00:04:11.105Z,74.90
2022-09-07T00:05:11.071Z,74.88
2022-09-07T00:06:11.060Z,74.98
2022-09-07T00:07:11.069Z,75.38
2022-09-07T00:08:11.072Z,75.38
2022-09-07T00:09:11.065Z,75.48
2022-09-07T00:10:11.063Z,75.60
2022-09-07T00:11:13.072Z,75.70
2022-09-07T00:12:11.065Z,76.04
2022-09-07T00:13:11.063Z,76.08
2022-09-07T00:14:11.071Z,76.38
2022-09-07T00:15:13.070Z,76.33
2022-09-07T00:16:15.139Z,76.23
2022-09-07T00:17:11.069Z,76.02
2022-09-07T00:18:11.072Z,75.98
2022-09-07T00:19:11.066Z,75.90
2022-09-07T00:20:11.062Z,75.97
2022-09-07T00:21:11.067Z,76.08
2022-09-07T00:22:11.059Z,76.11
2022-09-07T00:23:11.054Z,76.11
2022-09-07T00:24:11.061Z,76.09
2022-09-07T00:25:11.058Z,76.24
2022-09-07T00:26:11.057Z,76.46
2022-09-07T00:27:11.063Z,76.20
2022-09-07T00:28:11.061Z,76.07
2022-09-07T00:29:11.058Z,76.17
2022-09-07T00:30:11.061Z,76.15
2022-09-07T00:31:14.130Z,76.66
2022-09-07T00:32:11.061Z,76.73
2022-09-07T00:33:11.062Z,76.42
2022-09-07T00:34:11.061Z,76.80
2022-09-07T00:35:11.060Z,76.73
2022-09-07T00:36:11.057Z,76.68
2022-09-07T00:37:11.062Z,76.89
2022-09-07T00:38:11.063Z,76.93
2022-09-07T00:39:11.059Z,76.94
2022-09-07T00:40:11.120Z,76.89
2022-09-07T00:41:11.062Z,77.47
2022-09-07T00:42:11.059Z,77.49
2022-09-07T00:43:16.064Z,77.39
2022-09-07T00:44:19.063Z,77.35
2022-09-07T00:45:19.063Z,77.37
2022-09-07T00:46:18.138Z,77.67
2022-09-07T00:47:19.062Z,77.76
2022-09-07T00:48:15.077Z,77.54
2022-09-07T00:49:16.062Z,77.46
2022-09-07T00:50:16.064Z,77.51
2022-09-07T00:51:14.062Z,77.54
2022-09-07T00:52:11.071Z,77.41
2022-09-07T00:53:19.061Z,77.49
2022-09-07T00:54:14.063Z,77.54
2022-09-07T00:55:13.062Z,78.04
2022-09-07T00:56:11.078Z,78.14
2022-09-07T00:57:11.064Z,78.28
2022-09-07T00:58:11.062Z,78.20
2022-09-07T00:59:13.066Z,78.24
2022-09-07T01:00:11.064Z,78.08
2022-09-07T01:01:11.062Z,77.94
2022-09-07T01:02:11.192Z,78.14
2022-09-07T01:03:11.070Z,78.20
2022-09-07T01:04:11.063Z,78.44
2022-09-07T01:05:19.068Z,78.58
2022-09-07T01:06:16.073Z,78.38
2022-09-07T01:07:11.064Z,78.36
2022-09-07T01:08:11.064Z,78.15
2022-09-07T01:09:12.063Z,78.00
2022-09-07T01:10:11.069Z,78.17
2022-09-07T01:11:11.063Z,78.08
2022-09-07T01:12:11.066Z,78.05
2022-09-07T01:13:11.067Z,77.76
2022-09-07T01:14:11.065Z,77.60
2022-09-07T01:15:11.066Z,77.48
2022-09-07T01:16:21.118Z,77.63
2022-09-07T01:17:19.069Z,77.80
2022-09-07T01:18:21.070Z,77.84
2022-09-07T01:19:21.066Z,77.61
2022-09-07T01:20:19.057Z,77.47
2022-09-07T01:21:19.065Z,77.51
2022-09-07T01:22:19.070Z,77.43
2022-09-07T01:23:19.057Z,77.49
2022-09-07T01:24:21.055Z,77.65
2022-09-07T01:25:19.058Z,78.00
2022-09-07T01:26:19.065Z,78.10
2022-09-07T01:27:19.058Z,78.18
2022-09-07T01:28:20.059Z,78.39
2022-09-07T01:29:18.055Z,78.51
2022-09-07T01:30:14.057Z,78.28
2022-09-07T01:31:19.095Z,78.21
2022-09-07T01:32:21.060Z,78.54
2022-09-07T01:33:21.057Z,78.61
2022-09-07T01:34:19.055Z,78.55
2022-09-07T01:35:17.059Z,78.32
2022-09-07T01:36:19.072Z,78.03
2022-09-07T01:37:19.059Z,77.93
2022-09-07T01:38:19.058Z,77.86
2022-09-07T01:39:11.060Z,77.78
2022-09-07T01:40:21.077Z,77.68
2022-09-07T01:41:19.060Z,77.85
2022-09-07T01:42:12.059Z,77.79
2022-09-07T01:43:18.057Z,77.67
2022-09-07T01:44:19.060Z,77.52
2022-09-07T01:45:13.062Z,77.55
2022-09-07T01:46:18.121Z,77.47
2022-09-07T01:47:17.059Z,77.49
2022-09-07T01:48:14.062Z,77.47
2022-09-07T01:49:19.073Z,77.48
2022-09-07T01:50:19.065Z,77.66
2022-09-07T01:51:12.058Z,77.65
2022-09-07T01:52:16.065Z,77.67
2022-09-07T01:53:19.074Z,77.62
2022-09-07T01:54:17.062Z,77.65
2022-09-07T01:55:17.063Z,78.01
2022-09-07T01:56:17.061Z,78.12
2022-09-07T01:57:18.071Z,78.26
2022-09-07T01:58:21.062Z,78.57
2022-09-07T01:59:19.061Z,78.31
2022-09-07T02:00:15.059Z,78.14
2022-09-07T02:01:13.161Z,78.16
2022-09-07T02:02:17.133Z,78.14
2022-09-07T02:03:19.062Z,77.87
2022-09-07T02:04:14.065Z,77.88
2022-09-07T02:05:19.071Z,77.93
2022-09-07T02:06:21.063Z,77.94
2022-09-07T02:07:21.070Z,77.75
2022-09-07T02:08:19.062Z,77.97
2022-09-07T02:09:19.061Z,78.17
2022-09-07T02:10:18.062Z,78.41
2022-09-07T02:11:14.073Z,78.28
2022-09-07T02:12:16.063Z,78.52
2022-09-07T02:13:16.066Z,78.58
2022-09-07T02:14:19.072Z,78.66
2022-09-07T02:15:15.075Z,78.77
2022-09-07T02:16:19.104Z,78.91
2022-09-07T02:17:19.061Z,78.72
2022-09-07T02:18:11.066Z,78.48
2022-09-07T02:19:14.075Z,78.71
2022-09-07T02:20:17.066Z,78.50
2022-09-07T02:21:11.057Z,78.44
2022-09-07T02:22:15.058Z,78.51
2022-09-07T02:23:17.059Z,78.62
2022-09-07T02:24:19.060Z,78.84
2022-09-07T02:25:12.058Z,79.01
2022-09-07T02:26:16.063Z,79.13
2022-09-07T02:27:17.060Z,79.56
2022-09-07T02:28:12.061Z,79.14
2022-09-07T02:29:11.058Z,78.88
2022-09-07T02:30:11.061Z,79.16
2022-09-07T02:31:11.119Z,79.51
2022-09-07T02:32:11.058Z,80.01
2022-09-07T02:33:11.061Z,80.25
2022-09-07T02:34:11.069Z,80.05
2022-09-07T02:35:11.058Z,79.66
2022-09-07T02:36:11.061Z,79.82
2022-09-07T02:37:11.067Z,79.92
2022-09-07T02:38:11.061Z,80.04
2022-09-07T02:39:11.056Z,80.99
2022-09-07T02:40:11.121Z,80.65
2022-09-07T02:41:19.064Z,80.71
2022-09-07T02:42:11.060Z,80.92
2022-09-07T02:43:11.063Z,80.95
2022-09-07T02:44:19.067Z,80.72
2022-09-07T02:45:11.060Z,80.76
2022-09-07T02:46:21.143Z,80.65
2022-09-07T02:47:19.060Z,80.91
2022-09-07T02:48:21.068Z,80.67
2022-09-07T02:49:19.063Z,80.61
2022-09-07T02:50:19.064Z,80.61
2022-09-07T02:51:21.059Z,80.83
2022-09-07T02:52:23.062Z,80.73
2022-09-07T02:53:19.065Z,80.95
2022-09-07T02:54:19.075Z,81.00
2022-09-07T02:55:19.063Z,80.81
2022-09-07T02:56:21.060Z,80.95
2022-09-07T02:57:19.060Z,81.11
2022-09-07T02:58:19.061Z,81.02
2022-09-07T02:59:19.074Z,80.85
2022-09-07T03:00:15.063Z,81.00
2022-09-07T03:01:19.139Z,81.35
2022-09-07T03:02:19.115Z,81.37
2022-09-07T03:03:18.072Z,81.36
2022-09-07T03:04:19.067Z,81.98
2022-09-07T03:05:19.067Z,81.88
2022-09-07T03:06:17.064Z,81.49
2022-09-07T03:07:16.067Z,81.50
2022-09-07T03:08:21.075Z,81.41
2022-09-07T03:09:17.072Z,81.04
2022-09-07T03:10:11.064Z,80.86
2022-09-07T03:11:11.061Z,80.73
2022-09-07T03:12:11.067Z,81.38
2022-09-07T03:13:15.066Z,81.56
2022-09-07T03:14:17.077Z,81.60
2022-09-07T03:15:14.068Z,81.15
2022-09-07T03:16:14.170Z,81.29
2022-09-07T03:17:11.066Z,81.37
2022-09-07T03:18:11.063Z,81.61
2022-09-07T03:19:11.066Z,81.43
2022-09-07T03:20:11.074Z,81.35
2022-09-07T03:21:11.057Z,81.09
2022-09-07T03:22:11.060Z,80.90
2022-09-07T03:23:11.065Z,80.58
2022-09-07T03:24:11.057Z,80.73
2022-09-07T03:25:11.059Z,80.99
2022-09-07T03:26:19.071Z,81.41
2022-09-07T03:27:11.061Z,81.37
2022-09-07T03:28:11.060Z,81.49
2022-09-07T03:29:11.058Z,81.65
2022-09-07T03:30:11.063Z,81.59
2022-09-07T03:31:11.122Z,81.11
2022-09-07T03:32:11.059Z,80.75
2022-09-07T03:33:11.065Z,80.77
2022-09-07T03:34:11.059Z,80.76
2022-09-07T03:35:11.059Z,81.22
2022-09-07T03:36:11.061Z,81.69
2022-09-07T03:37:11.059Z,81.48
2022-09-07T03:38:11.059Z,81.50
2022-09-07T03:39:11.061Z,81.38
2022-09-07T03:40:11.182Z,81.63
2022-09-07T03:41:11.062Z,81.73
2022-09-07T03:42:11.061Z,81.52
2022-09-07T03:43:11.060Z,81.64
2022-09-07T03:44:11.062Z,81.62
2022-09-07T03:45:11.067Z,81.66
2022-09-07T03:46:11.132Z,81.34
2022-09-07T03:47:11.062Z,81.08
2022-09-07T03:48:11.073Z,81.40
2022-09-07T03:49:11.060Z,81.43
2022-09-07T03:50:11.062Z,81.88
2022-09-07T03:51:11.074Z,81.62
2022-09-07T03:52:11.162Z,81.50
2022-09-07T03:53:11.062Z,81.54
2022-09-07T03:54:11.070Z,81.35
2022-09-07T03:55:11.063Z,81.48
2022-09-07T03:56:12.065Z,81.49
2022-09-07T03:57:11.069Z,81.39
2022-09-07T03:58:11.068Z,81.18
2022-09-07T03:59:11.060Z,80.87
2022-09-07T04:00:11.063Z,81.43
2022-09-07T04:01:11.088Z,81.47
2022-09-07T04:02:11.100Z,81.32
2022-09-07T04:03:11.063Z,81.34
2022-09-07T04:04:11.064Z,81.24
2022-09-07T04:05:11.062Z,81.31
2022-09-07T04:06:11.064Z,81.56
2022-09-07T04:07:11.072Z,81.43
2022-09-07T04:08:11.063Z,81.23
2022-09-07T04:09:12.066Z,81.11
2022-09-07T04:10:11.066Z,81.14
2022-09-07T04:11:15.067Z,81.34
2022-09-07T04:12:11.064Z,81.32
2022-09-07T04:13:11.066Z,81.21
2022-09-07T04:14:11.066Z,80.89
2022-09-07T04:15:11.063Z,80.85
2022-09-07T04:16:18.126Z,80.89
2022-09-07T04:17:11.096Z,81.21
2022-09-07T04:18:11.068Z,81.20
2022-09-07T04:19:11.062Z,81.92
2022-09-07T04:20:11.070Z,81.62
2022-09-07T04:21:11.059Z,81.71
2022-09-07T04:22:11.057Z,81.60
2022-09-07T04:23:11.059Z,81.47
2022-09-07T04:24:11.061Z,81.30
2022-09-07T04:25:11.057Z,81.44
2022-09-07T04:26:18.058Z,81.43
2022-09-07T04:27:11.058Z,81.36
2022-09-07T04:28:11.062Z,81.69
2022-09-07T04:29:11.059Z,81.64
2022-09-07T04:30:11.063Z,81.73
2022-09-07T04:31:11.143Z,81.58
2022-09-07T04:32:15.501Z,81.40
2022-09-07T04:33:11.061Z,81.67
2022-09-07T04:34:11.067Z,81.81
2022-09-07T04:35:11.071Z,81.75
2022-09-07T04:36:11.057Z,81.70
2022-09-07T04:37:11.090Z,81.72
2022-09-07T04:38:13.061Z,81.79
2022-09-07T04:39:11.058Z,81.73
2022-09-07T04:40:11.126Z,81.67
2022-09-07T04:41:16.062Z,81.83
2022-09-07T04:42:11.062Z,81.95
2022-09-07T04:43:12.058Z,81.97
2022-09-07T04:44:13.694Z,81.72
2022-09-07T04:45:13.103Z,81.70
2022-09-07T04:46:16.147Z,81.63
2022-09-07T04:47:11.065Z,81.72
2022-09-07T04:48:11.072Z,81.83
2022-09-07T04:49:11.061Z,81.68
2022-09-07T04:50:11.064Z,81.68
2022-09-07T04:51:11.070Z,81.55
2022-09-07T04:52:11.065Z,81.23
2022-09-07T04:53:11.065Z,81.21
2022-09-07T04:54:11.065Z,81.51
2022-09-07T04:55:11.068Z,81.75
2022-09-07T04:56:15.012Z,81.62
2022-09-07T04:57:13.067Z,81.67
2022-09-07T04:58:11.065Z,81.88
2022-09-07T04:59:11.061Z,82.09
2022-09-07T05:00:13.065Z,82.13
2022-09-07T05:01:11.145Z,81.95
2022-09-07T05:02:11.226Z,82.01
2022-09-07T05:03:11.067Z,81.86
2022-09-07T05:04:11.079Z,81.71
2022-09-07T05:05:11.068Z,81.89
2022-09-07T05:06:11.061Z,81.77
2022-09-07T05:07:11.143Z,81.75
2022-09-07T05:08:11.066Z,81.70
2022-09-07T05:09:11.065Z,81.82
2022-09-07T05:10:11.067Z,82.28
2022-09-07T05:11:11.066Z,82.21
2022-09-07T05:12:11.065Z,82.01
2022-09-07T05:13:11.065Z,81.69
2022-09-07T05:14:11.075Z,81.77
2022-09-07T05:15:11.063Z,81.66
2022-09-07T05:16:11.115Z,81.68
2022-09-07T05:17:11.068Z,81.49
2022-09-07T05:18:11.068Z,81.52
2022-09-07T05:19:13.064Z,81.58
2022-09-07T05:20:11.065Z,81.65
2022-09-07T05:21:15.062Z,81.80
2022-09-07T05:22:11.058Z,81.67
2022-09-07T05:23:11.058Z,81.48
2022-09-07T05:24:11.060Z,81.37
2022-09-07T05:25:11.059Z,81.21
2022-09-07T05:26:11.060Z,81.30
2022-09-07T05:27:11.069Z,81.23
2022-09-07T05:28:11.059Z,81.33
2022-09-07T05:31:18.955Z,81.23
2022-09-07T05:32:11.060Z,81.25
2022-09-07T05:33:11.065Z,81.10
2022-09-07T05:34:32.998Z,81.02
2022-09-07T05:35:13.066Z,80.88
2022-09-07T05:36:11.063Z,80.88
2022-09-07T05:37:11.063Z,80.75
2022-09-07T05:38:11.070Z,80.72
2022-09-07T05:39:11.062Z,80.58
2022-09-07T05:40:11.106Z,80.57
2022-09-07T05:41:15.070Z,80.39
2022-09-07T05:42:11.062Z,80.10
2022-09-07T05:43:11.063Z,80.12
2022-09-07T05:45:13.093Z,80.14
2022-09-07T05:46:11.143Z,80.21
2022-09-07T05:47:11.088Z,80.41
2022-09-07T05:48:11.070Z,80.46
2022-09-07T05:49:11.066Z,80.32
2022-09-07T05:50:11.061Z,80.25
2022-09-07T05:51:11.065Z,80.18
2022-09-07T05:52:11.065Z,80.11
2022-09-07T05:53:11.065Z,79.97
2022-09-07T05:54:11.071Z,79.99
2022-09-07T05:55:28.944Z,80.07
2022-09-07T05:56:13.626Z,79.91
2022-09-07T05:57:12.066Z,79.85
2022-09-07T05:58:11.073Z,79.91
2022-09-07T05:59:11.065Z,79.96
2022-09-07T06:00:11.062Z,79.75
2022-09-07T06:01:11.068Z,79.72
2022-09-07T06:02:13.161Z,79.68
2022-09-07T06:03:11.245Z,79.73
2022-09-07T06:04:11.067Z,79.89
2022-09-07T06:05:11.075Z,80.02
2022-09-07T06:06:14.064Z,80.27
2022-09-07T06:07:21.711Z,80.43
2022-09-07T06:08:13.091Z,80.25
2022-09-07T06:09:11.075Z,79.98
2022-09-07T06:11:13.077Z,79.88
2022-09-07T06:12:11.069Z,79.87
2022-09-07T06:13:11.068Z,79.71
2022-09-07T06:14:11.066Z,79.53
2022-09-07T06:15:11.066Z,79.53
2022-09-07T06:16:11.105Z,79.58
2022-09-07T06:17:11.067Z,79.47
2022-09-07T06:18:11.067Z,79.33
2022-09-07T06:19:11.071Z,79.09
2022-09-07T06:20:11.067Z,79.28
2022-09-07T06:21:11.061Z,79.21
2022-09-07T06:22:11.070Z,79.21
2022-09-07T06:23:11.063Z,79.21
2022-09-07T06:24:11.060Z,79.18
2022-09-07T06:25:11.063Z,79.10
2022-09-07T06:26:11.062Z,79.12
2022-09-07T06:27:11.061Z,78.98
2022-09-07T06:28:11.062Z,79.00
2022-09-07T06:29:11.069Z,79.16
2022-09-07T06:30:11.063Z,78.78
2022-09-07T06:31:11.095Z,78.50
2022-09-07T06:33:14.325Z,78.24
2022-09-07T06:34:11.061Z,78.51
2022-09-07T06:35:11.065Z,78.47
2022-09-07T06:36:14.065Z,78.50
2022-09-07T06:37:11.061Z,78.37
2022-09-07T06:38:11.063Z,78.28
2022-09-07T06:39:11.070Z,78.18
2022-09-07T06:40:11.150Z,78.24
2022-09-07T06:42:13.082Z,78.11
2022-09-07T06:43:11.064Z,78.11
2022-09-07T06:44:11.064Z,78.15
2022-09-07T06:45:11.610Z,77.84
2022-09-07T06:47:13.341Z,77.76
2022-09-07T06:48:11.067Z,77.76
2022-09-07T06:49:11.073Z,77.75
2022-09-07T06:50:11.066Z,77.71
2022-09-07T06:51:18.062Z,77.58
2022-09-07T06:52:11.067Z,77.36
2022-09-07T06:53:34.975Z,77.40
2022-09-07T06:55:13.085Z,77.56
2022-09-07T06:56:12.068Z,77.42
2022-09-07T06:57:12.066Z,77.44
2022-09-07T06:58:11.065Z,77.32
2022-09-07T06:59:11.068Z,77.31
2022-09-07T07:00:11.067Z,77.09
2022-09-07T07:01:18.126Z,77.08
2022-09-07T07:02:13.066Z,77.12
2022-09-07T07:03:11.159Z,77.01
2022-09-07T07:04:11.069Z,77.05
2022-09-07T07:05:11.064Z,77.22
2022-09-07T07:06:11.075Z,77.08
2022-09-07T07:07:13.069Z,77.23
2022-09-07T07:08:11.065Z,77.17
2022-09-07T07:09:11.068Z,77.24
2022-09-07T07:10:11.068Z,77.17
2022-09-07T07:11:14.069Z,77.22
2022-09-07T07:12:11.135Z,77.08
2022-09-07T07:14:16.270Z,77.20
2022-09-07T07:15:11.064Z,77.25
2022-09-07T07:16:16.115Z,77.02
2022-09-07T07:17:11.071Z,77.12
2022-09-07T07:18:20.741Z,77.07
2022-09-07T07:19:13.075Z,77.04
2022-09-07T07:20:11.077Z,76.93
2022-09-07T07:21:13.061Z,76.81
2022-09-07T07:22:29.563Z,76.58
2022-09-07T07:23:13.085Z,76.59
2022-09-07T07:24:11.064Z,76.51
2022-09-07T07:25:11.056Z,76.52
2022-09-07T07:26:15.060Z,76.62
2022-09-07T07:27:11.064Z,76.29
2022-09-07T07:29:15.912Z,75.93
2022-09-07T07:30:13.077Z,75.70
2022-09-07T07:31:13.159Z,75.71
2022-09-07T07:32:11.062Z,75.54
2022-09-07T07:33:11.092Z,75.50
2022-09-07T07:34:11.119Z,75.50
2022-09-07T07:35:11.061Z,75.31
2022-09-07T07:36:19.061Z,75.24
2022-09-07T07:37:11.062Z,75.25
2022-09-07T07:42:13.341Z,74.57
2022-09-07T07:43:11.061Z,74.65
2022-09-07T07:44:11.061Z,74.70
2022-09-07T07:46:15.139Z,74.30
2022-09-07T07:47:11.060Z,74.25
2022-09-07T07:48:13.064Z,74.14
2022-09-07T07:49:11.091Z,73.92
2022-09-07T07:50:33.759Z,73.68
2022-09-07T07:51:13.341Z,73.59
2022-09-07T07:53:42.296Z,73.59
2022-09-07T07:54:13.078Z,73.48
2022-09-07T07:56:13.085Z,73.34
2022-09-07T07:57:11.066Z,73.13
2022-09-07T07:58:11.060Z,73.13
2022-09-07T07:59:15.509Z,72.89
2022-09-07T08:00:11.065Z,72.62
2022-09-07T08:01:12.120Z,72.73
2022-09-07T08:02:15.285Z,72.69
2022-09-07T08:03:11.067Z,72.56
2022-09-07T08:04:11.068Z,72.32
2022-09-07T08:05:11.065Z,72.31
2022-09-07T08:06:11.073Z,72.33
2022-09-07T08:07:11.404Z,72.27
2022-09-07T08:08:11.065Z,72.13
2022-09-07T08:09:11.072Z,72.06
2022-09-07T08:10:11.067Z,72.05
2022-09-07T08:11:12.065Z,71.99
2022-09-07T08:12:12.072Z,71.79
2022-09-07T08:13:11.067Z,71.81
2022-09-07T08:14:11.064Z,71.58
2022-09-07T08:15:11.067Z,71.68
2022-09-07T08:16:11.118Z,71.51
2022-09-07T08:17:11.065Z,71.46
2022-09-07T08:18:11.069Z,71.40
2022-09-07T08:19:11.076Z,71.19
2022-09-07T08:20:11.065Z,71.24
2022-09-07T08:21:12.059Z,70.76
2022-09-07T08:22:11.067Z,70.84
2022-09-07T08:23:11.061Z,70.74
2022-09-07T08:24:11.060Z,70.71
2022-09-07T08:25:11.060Z,70.49
2022-09-07T08:26:11.060Z,70.55
2022-09-07T08:27:11.058Z,70.47
2022-09-07T08:28:11.060Z,70.46
2022-09-07T08:29:11.061Z,70.29
2022-09-07T08:30:11.060Z,70.16
2022-09-07T08:31:11.119Z,69.91
2022-09-07T08:32:11.068Z,69.83
2022-09-07T08:33:11.057Z,69.61
2022-09-07T08:34:11.061Z,69.31
2022-09-07T08:35:11.062Z,69.42
2022-09-07T08:36:15.060Z,69.08
2022-09-07T08:37:11.062Z,68.75
2022-09-07T08:38:11.070Z,68.96
2022-09-07T08:39:11.063Z,69.08
2022-09-07T08:40:16.143Z,69.17
2022-09-07T08:41:21.068Z,69.01
2022-09-07T08:42:21.063Z,69.20
2022-09-07T08:43:19.063Z,69.18
2022-09-07T08:44:21.063Z,69.14
2022-09-07T08:45:21.065Z,69.46
2022-09-07T08:46:19.092Z,69.40
2022-09-07T08:47:19.071Z,69.45
2022-09-07T08:48:14.065Z,69.24
2022-09-07T08:49:21.061Z,69.01
2022-09-07T08:50:21.061Z,69.04
2022-09-07T08:51:24.197Z,68.78
2022-09-07T08:52:17.062Z,68.78
2022-09-07T08:53:13.097Z,68.95
2022-09-07T08:54:12.064Z,69.11
2022-09-07T08:55:21.062Z,68.72
2022-09-07T08:56:18.067Z,68.93
2022-09-07T08:57:23.134Z,68.95
2022-09-07T08:58:45.138Z,68.74
2022-09-07T08:59:21.329Z,68.75
2022-09-07T09:00:14.063Z,68.51
2022-09-07T09:01:33.635Z,67.97
2022-09-07T09:02:35.161Z,67.33
2022-09-07T09:03:30.092Z,67.16
2022-09-07T09:04:21.674Z,66.95
2022-09-07T09:05:21.274Z,66.57
2022-09-07T09:06:19.190Z,66.38
2022-09-07T09:07:19.068Z,66.18
2022-09-07T09:08:21.068Z,65.83
2022-09-07T09:09:21.080Z,65.66
2022-09-07T09:10:19.067Z,65.42
2022-09-07T09:11:21.064Z,65.25
2022-09-07T09:12:19.063Z,65.12
2022-09-07T09:13:16.066Z,65.34
2022-09-07T09:14:21.141Z,65.35
2022-09-07T09:15:19.068Z,65.38
2022-09-07T09:16:17.140Z,65.21
2022-09-07T09:17:16.064Z,65.12
2022-09-07T09:18:21.070Z,65.19
2022-09-07T09:19:21.075Z,64.82
2022-09-07T09:20:19.058Z,64.71
2022-09-07T09:21:17.059Z,64.71
2022-09-07T09:22:17.056Z,64.78
2022-09-07T09:23:14.058Z,64.93
2022-09-07T09:24:18.060Z,64.30
2022-09-07T09:25:19.058Z,63.84
2022-09-07T09:26:15.057Z,63.63
2022-09-07T09:27:11.063Z,63.56
2022-09-07T09:28:13.060Z,63.77
2022-09-07T09:29:18.057Z,63.53
2022-09-07T09:30:15.132Z,63.31
2022-09-07T09:31:18.101Z,62.81
2022-09-07T09:32:19.060Z,62.47
2022-09-07T09:33:19.060Z,62.15
2022-09-07T09:34:15.064Z,61.64
2022-09-07T09:35:21.068Z,61.63
2022-09-07T09:36:19.062Z,61.04
2022-09-07T09:37:13.062Z,61.46
2022-09-07T09:38:19.057Z,61.45
2022-09-07T09:39:19.062Z,61.46
2022-09-07T09:40:19.125Z,61.78
2022-09-07T09:41:15.064Z,61.58
2022-09-07T09:42:15.060Z,62.14
2022-09-07T09:43:19.063Z,61.76
2022-09-07T09:44:15.061Z,61.89
2022-09-07T09:45:18.066Z,61.96
2022-09-07T09:46:19.193Z,62.22
2022-09-07T09:47:32.261Z,62.25
2022-09-07T09:48:13.086Z,62.37
2022-09-07T09:49:17.069Z,62.17
2022-09-07T09:52:42.245Z,62.35
2022-09-07T09:53:21.072Z,62.33
2022-09-07T09:54:19.060Z,62.17
2022-09-07T09:55:33.866Z,62.05
2022-09-07T09:56:13.058Z,61.62
2022-09-07T09:57:17.066Z,61.17
2022-09-07T10:00:27.910Z,61.27
2022-09-07T10:01:22.352Z,60.91
2022-09-07T10:04:24.627Z,60.75
2022-09-07T10:05:21.063Z,60.73
2022-09-07T10:06:16.063Z,60.82
2022-09-07T10:07:21.068Z,60.83
2022-09-07T10:08:21.075Z,60.79
2022-09-07T10:09:17.068Z,61.15
2022-09-07T10:10:15.064Z,61.40
2022-09-07T10:11:11.062Z,61.58
2022-09-07T10:12:19.076Z,61.50
2022-09-07T10:13:20.068Z,61.64
2022-09-07T10:14:18.068Z,61.91
2022-09-07T10:15:19.067Z,61.96
2022-09-07T10:16:11.134Z,62.04
2022-09-07T10:17:21.074Z,62.09
2022-09-07T10:18:21.077Z,62.12
2022-09-07T10:19:19.068Z,62.27
2022-09-07T10:20:19.056Z,62.36
2022-09-07T10:21:19.062Z,62.38
2022-09-07T10:22:19.057Z,62.31
2022-09-07T10:23:19.066Z,62.16
2022-09-07T10:24:15.067Z,62.40
2022-09-07T10:25:19.060Z,62.35
2022-09-07T10:26:19.058Z,62.30
2022-09-07T10:27:19.060Z,62.33
2022-09-07T10:28:21.284Z,61.83
2022-09-07T10:29:19.072Z,61.77
2022-09-07T10:30:16.061Z,61.61
2022-09-07T10:31:21.102Z,61.44
2022-09-07T10:32:19.055Z,61.43
2022-09-07T10:33:22.059Z,61.54
2022-09-07T10:34:26.462Z,61.72
2022-09-07T10:35:21.135Z,61.62
2022-09-07T10:36:21.062Z,61.33
2022-09-07T10:37:11.059Z,61.47
2022-09-07T10:38:18.060Z,61.65
2022-09-07T10:39:16.083Z,62.35
2022-09-07T10:40:21.144Z,62.96
2022-09-07T10:41:11.062Z,64.24
2022-09-07T10:42:19.058Z,64.63
2022-09-07T10:43:21.793Z,65.17
2022-09-07T10:44:17.069Z,65.60
2022-09-07T10:45:18.065Z,65.80
2022-09-07T10:47:21.119Z,66.74
2022-09-07T10:48:19.062Z,67.21
2022-09-07T10:49:17.070Z,67.44
2022-09-07T10:50:22.788Z,67.64
2022-09-07T10:51:23.353Z,67.56
2022-09-07T10:52:23.063Z,68.05
2022-09-07T10:53:40.030Z,67.71
2022-09-07T10:54:32.224Z,67.72
2022-09-07T10:55:23.066Z,67.91
2022-09-07T10:56:18.062Z,68.24
2022-09-07T10:57:19.059Z,68.15
2022-09-07T10:58:19.398Z,67.89
2022-09-07T10:59:19.078Z,67.79
2022-09-07T11:00:16.065Z,68.10
2022-09-07T11:01:19.117Z,67.31
2022-09-07T11:02:21.122Z,67.38
2022-09-07T11:03:26.651Z,66.76
2022-09-07T11:04:19.066Z,66.55
2022-09-07T11:05:19.066Z,66.30
2022-09-07T11:06:19.072Z,66.37
2022-09-07T11:07:19.062Z,65.78
2022-09-07T11:08:21.066Z,66.33
2022-09-07T11:09:19.861Z,66.41
2022-09-07T11:10:19.067Z,66.02
2022-09-07T11:12:00.693Z,65.82
2022-09-07T11:12:23.790Z,65.59
2022-09-07T11:13:17.095Z,65.56
2022-09-07T11:14:15.068Z,65.58
2022-09-07T11:15:17.069Z,65.36
2022-09-07T11:17:18.073Z,64.72
2022-09-07T11:18:17.065Z,64.33
2022-09-07T11:19:36.981Z,64.17
2022-09-07T11:20:21.099Z,64.03
2022-09-07T11:21:14.650Z,64.08
2022-09-07T11:22:22.058Z,63.89
2022-09-07T11:23:19.053Z,63.96
2022-09-07T11:24:20.056Z,64.00
2022-09-07T11:25:31.622Z,64.12
2022-09-07T11:26:21.086Z,64.15
2022-09-07T11:27:18.056Z,64.07
2022-09-07T11:28:17.055Z,63.54
2022-09-07T11:29:30.844Z,63.76
2022-09-07T11:30:21.081Z,63.97
2022-09-07T11:31:21.091Z,63.45
2022-09-07T11:32:17.059Z,63.17
2022-09-07T11:33:19.057Z,62.86
2022-09-07T11:34:26.030Z,62.19
2022-09-07T11:35:21.077Z,61.54
2022-09-07T11:36:18.068Z,61.59
2022-09-07T11:37:20.061Z,61.19
2022-09-07T11:38:21.059Z,61.15
2022-09-07T11:39:16.056Z,60.72
2022-09-07T11:40:19.062Z,61.12
2022-09-07T11:41:19.066Z,60.96
2022-09-07T11:42:43.696Z,60.71
2022-09-07T11:43:21.080Z,60.82
2022-09-07T11:44:19.063Z,60.73
2022-09-07T11:45:16.067Z,60.72
2022-09-07T11:46:19.106Z,60.55
2022-09-07T11:47:17.061Z,60.52
2022-09-07T11:48:21.061Z,60.81
2022-09-07T11:49:19.069Z,60.95
2022-09-07T11:50:18.063Z,60.86
2022-09-07T11:51:19.060Z,60.43
2022-09-07T11:52:19.059Z,60.63
2022-09-07T11:53:17.062Z,60.49
2022-09-07T11:54:19.064Z,60.48
2022-09-07T11:55:19.064Z,60.45
2022-09-07T11:56:19.062Z,60.36
2022-09-07T11:57:19.064Z,60.21
2022-09-07T11:58:19.072Z,59.71
2022-09-07T11:59:21.066Z,59.76
2022-09-07T12:00:20.064Z,59.92
2022-09-07T12:01:19.064Z,60.09
2022-09-07T12:02:32.241Z,59.63
2022-09-07T12:03:22.812Z,58.79
2022-09-07T12:04:23.149Z,58.76
2022-09-07T12:05:19.067Z,58.61
2022-09-07T12:06:19.069Z,58.42
2022-09-07T12:07:21.067Z,58.51
2022-09-07T12:08:21.065Z,59.04
2022-09-07T12:09:17.067Z,58.12
2022-09-07T12:10:21.067Z,58.09
2022-09-07T12:11:22.602Z,57.64
2022-09-07T12:12:19.066Z,57.91
2022-09-07T12:13:21.077Z,57.63
2022-09-07T12:14:19.071Z,57.60
2022-09-07T12:15:21.068Z,56.80
2022-09-07T12:16:17.183Z,56.57
2022-09-07T12:17:21.066Z,57.01
2022-09-07T12:18:21.069Z,56.58
2022-09-07T12:19:22.067Z,56.45
2022-09-07T12:20:18.075Z,56.38
2022-09-07T12:21:21.058Z,56.18
2022-09-07T12:22:19.060Z,56.16
2022-09-07T12:23:21.060Z,55.99
2022-09-07T12:24:19.060Z,55.79
2022-09-07T12:25:15.067Z,56.09
2022-09-07T12:26:19.063Z,56.09
2022-09-07T12:27:19.062Z,56.20
2022-09-07T12:28:21.987Z,56.22
2022-09-07T12:29:21.070Z,56.30
2022-09-07T12:30:19.063Z,56.52
2022-09-07T12:31:13.088Z,56.51
2022-09-07T12:33:21.109Z,56.61
2022-09-07T12:34:19.063Z,56.68
2022-09-07T12:35:19.059Z,56.33
2022-09-07T12:36:19.061Z,56.43
2022-09-07T12:37:19.060Z,56.33
2022-09-07T12:38:21.067Z,56.32
2022-09-07T12:39:19.064Z,56.63
2022-09-07T12:40:19.062Z,56.47
2022-09-07T12:41:19.061Z,56.79
2022-09-07T12:42:37.449Z,56.71
2022-09-07T12:43:21.094Z,56.70
2022-09-07T12:44:19.063Z,57.05
2022-09-07T12:45:19.061Z,56.97
2022-09-07T12:46:19.129Z,56.93
2022-09-07T12:47:21.609Z,56.92
2022-09-07T12:48:21.070Z,57.10
2022-09-07T12:49:19.065Z,57.25
2022-09-07T12:50:21.062Z,57.43
2022-09-07T12:51:59.650Z,57.75
2022-09-07T12:52:23.362Z,57.89
2022-09-07T12:53:19.068Z,58.02
2022-09-07T12:54:21.078Z,58.35
2022-09-07T12:55:27.145Z,58.64
2022-09-07T12:56:23.064Z,58.63
2022-09-07T12:57:31.323Z,58.69
2022-09-07T12:58:23.281Z,58.41
2022-09-07T12:59:20.094Z,58.78
2022-09-07T13:00:21.067Z,58.89
2022-09-07T13:01:21.190Z,58.74
2022-09-07T13:02:19.169Z,58.92
2022-09-07T13:03:50.165Z,59.02
2022-09-07T13:04:23.328Z,59.15
2022-09-07T13:05:21.075Z,59.16
2022-09-07T13:06:19.297Z,59.01
2022-09-07T13:07:21.066Z,59.09
2022-09-07T13:08:19.066Z,58.97
2022-09-07T13:09:19.069Z,58.62
2022-09-07T13:10:21.073Z,58.67
2022-09-07T13:11:21.070Z,58.82
2022-09-07T13:14:01.908Z,58.80
2022-09-07T13:14:21.084Z,58.80
2022-09-07T13:15:24.013Z,58.94
2022-09-07T13:16:23.923Z,59.17
2022-09-07T13:17:21.199Z,59.08
2022-09-07T13:18:19.069Z,58.83
2022-09-07T13:19:16.393Z,58.79